Weather at Goolwa Airport

Public forecast

Using degrees Celsius for public forecast. Weather courtesy of forecast.io.

Closest aviation weather report (METAR) to Goolwa Airport

Closest report is Adelaide International Airport, 33.8 nm (62.6 km) NNW. Retrieved 2021/01/25 07:30 UTC (0 seconds ago):

YPAD 250730Z 24002KT 5000 -DZ BKN005 BKN022 21/21 Q0999 RERA

Closest aviation forecast (TAF) to Goolwa Airport

Closest forecast is Adelaide International Airport, 33.8 nm (62.6 km) NNW. Retrieved 2021/01/25 06:00 UTC (1 hour ago):

TAF YPAD 250524Z 2506/2612 18008KT 9000 -RA FEW020 BKN045 FM250900 19008KT 9999 NSW FEW025 FM251300 18012KT 9999 -SHRA SCT015 BKN020 FM260000 22014KT 9999 NSW SCT030 FM260700 17012KT 9999 FEW030 TEMPO 2506/2510 5000 RA BKN020 PROB30 INTER 2506/2509 VRB20G35KT 2000 TSRA SCT020 SCT060CB